Portada
METAR-TAF:

METAR-TAF

Aeroports :

Rafha, Aràbia Saudita

latitud: 29-37N, longitud: 043-29E, altitud: 449 m

Observació

L'informe es va fer fa 1 hora i 6 minuts, a les 01:00 UTC
Vent 8 kt del Oest
Temperatura 29°C
Humitat 12%
Pressió 1003 hPa
Visibilitat 10 km o més
sense núvols per sota de 1500 mi sense presència de cumulonimbus.

METAR: OERF 160100Z 28008KT CAVOK 29/M03 Q1003

Hora: 05:06 (02:06 UTC)

Pronòstic

L'informe es va fer fa 3 hores i 6 minuts, a les 23:00 UTC
Pronòstic vàlid del 16 a les 00 UTC al 17 a les 06 UTC
Vent 3 kt amb direcció variable
Visibilitat 10 km o més
sense núvols per sota de 1500 mi sense presència de cumulonimbus.
Evolucionant progressivament
l' 16 a les 06 UTC al 16 a les 08 UTC
Vent 12 kt del Nord
Temporalment
l' 16 a les 06 UTC al 16 a les 14 UTC
Visibilitat: 4000 m
Pols estès

TAF: OERF 152300Z 1600/1706 VRB03KT CAVOK BECMG 1606/1608 35012KT TEMPO 1606/1614 4000 DU

Observacions i pronòstics meteorològics de més de 4000 aeroports (METAR i TAF).

Les estacions disponibles són els punts grocs i vermells al mapa.

Posi el ratolí al punt desitjat per veure el nom de l'estació.

Feu clic per veure les observacions i els pronòstics meteorològics.

Per canviar el mapa: feu clic els botons verds amb una creu de color negre per apropar; al botó verd amb un guió per allunyar la imatge; o en les fletxes verdes per a mapes adjacents.


METAR-TAF: